4XDAG LLHA-LLHZ
Flight info
| Callsign | 4XDAG |
|---|---|
| Flight time | 0h 44m |
| Altitude | 2500 |
| Route | GALIM DAROM HOTRM BOREN FRDIS HADRA SHARO DEROR BAZRA |
| Aircraft | PA28/L-S/5100 |
Departure
| Time | 2026-04-23 22:18 |
|---|---|
| Airport | Uri Michaeli Haifa International Airport (LLHA) |
Arrival
| Time | 2026-04-23 23:02 |
|---|---|
| Airport | Herzliya Airport (LLHZ) |
| Time | Latitude | Longitude | Altitude | Speed | Heading |
|---|---|---|---|---|---|
| 2026-04-23 22:10 | 32.81553 | 35.04306 | 23 ft | 0 kts | 250° |
| 2026-04-23 22:16 | 32.81537 | 35.04296 | 23 ft | 6 kts | 166° |
| 2026-04-23 22:16 | 32.81511 | 35.04307 | 23 ft | 6 kts | 157° |
| 2026-04-23 22:16 | 32.81467 | 35.04222 | 25 ft | 14 kts | 249° |
| 2026-04-23 22:16 | 32.81461 | 35.04203 | 25 ft | 10 kts | 256° |
| 2026-04-23 22:17 | 32.81544 | 35.04157 | 28 ft | 13 kts | 325° |
| 2026-04-23 22:17 | 32.81485 | 35.04172 | 26 ft | 35 kts | 162° |
| 2026-04-23 22:17 | 32.81049 | 35.04354 | 48 ft | 91 kts | 158° |
| 2026-04-23 22:17 | 32.80404 | 35.04656 | 210 ft | 114 kts | 156° |
| 2026-04-23 22:18 | 32.79615 | 35.04955 | 464 ft | 122 kts | 163° |
| 2026-04-23 22:18 | 32.78785 | 35.05276 | 681 ft | 128 kts | 155° |
| 2026-04-23 22:18 | 32.78323 | 35.06017 | 1009 ft | 113 kts | 79° |
| 2026-04-23 22:18 | 32.78842 | 35.06763 | 1134 ft | 124 kts | 40° |
| 2026-04-23 22:19 | 32.79573 | 35.07357 | 1301 ft | 128 kts | 12° |
| 2026-04-23 22:19 | 32.80468 | 35.07177 | 1226 ft | 144 kts | 338° |
| 2026-04-23 22:19 | 32.81284 | 35.06556 | 1408 ft | 139 kts | 319° |
| 2026-04-23 22:19 | 32.82036 | 35.05829 | 1499 ft | 140 kts | 324° |
| 2026-04-23 22:20 | 32.82809 | 35.05076 | 1478 ft | 149 kts | 314° |
| 2026-04-23 22:20 | 32.83405 | 35.04079 | 1551 ft | 144 kts | 296° |
| 2026-04-23 22:20 | 32.83798 | 35.02973 | 1545 ft | 147 kts | 288° |
| 2026-04-23 22:20 | 32.83973 | 35.01748 | 1447 ft | 153 kts | 274° |
| 2026-04-23 22:21 | 32.84010 | 35.00476 | 1391 ft | 153 kts | 271° |
| 2026-04-23 22:21 | 32.83967 | 34.99225 | 1357 ft | 153 kts | 266° |
| 2026-04-23 22:21 | 32.83842 | 34.97962 | 1350 ft | 152 kts | 261° |
| 2026-04-23 22:21 | 32.83579 | 34.96757 | 1303 ft | 155 kts | 249° |
| 2026-04-23 22:22 | 32.83042 | 34.95684 | 1382 ft | 150 kts | 230° |
| 2026-04-23 22:22 | 32.82152 | 34.95094 | 1467 ft | 149 kts | 189° |
| 2026-04-23 22:22 | 32.81086 | 34.95160 | 1369 ft | 158 kts | 174° |
| 2026-04-23 22:22 | 32.79986 | 34.95289 | 1342 ft | 158 kts | 178° |
| 2026-04-23 22:23 | 32.78891 | 34.95248 | 1324 ft | 158 kts | 186° |
| 2026-04-23 22:23 | 32.77796 | 34.95169 | 1304 ft | 158 kts | 184° |
| 2026-04-23 22:23 | 32.76726 | 34.95074 | 1402 ft | 152 kts | 187° |
| 2026-04-23 22:23 | 32.75684 | 34.94968 | 1430 ft | 153 kts | 185° |
| 2026-04-23 22:24 | 32.74622 | 34.94889 | 1440 ft | 154 kts | 185° |
| 2026-04-23 22:24 | 32.73549 | 34.94782 | 1408 ft | 154 kts | 185° |
| 2026-04-23 22:24 | 32.72477 | 34.94669 | 1418 ft | 157 kts | 184° |
| 2026-04-23 22:24 | 32.71438 | 34.94923 | 1498 ft | 154 kts | 147° |
| 2026-04-23 22:25 | 32.70746 | 34.95891 | 1455 ft | 158 kts | 130° |
| 2026-04-23 22:25 | 32.69828 | 34.96460 | 1545 ft | 154 kts | 173° |
| 2026-04-23 22:25 | 32.68717 | 34.96389 | 1355 ft | 162 kts | 187° |
| 2026-04-23 22:25 | 32.67607 | 34.96242 | 1325 ft | 162 kts | 185° |
| 2026-04-23 22:26 | 32.66493 | 34.96143 | 1324 ft | 160 kts | 185° |
| 2026-04-23 22:26 | 32.65408 | 34.96051 | 1347 ft | 159 kts | 184° |
| 2026-04-23 22:26 | 32.64310 | 34.96001 | 1347 ft | 159 kts | 184° |
| 2026-04-23 22:26 | 32.63220 | 34.95832 | 1366 ft | 157 kts | 190° |
| 2026-04-23 22:27 | 32.62152 | 34.95621 | 1413 ft | 157 kts | 191° |
| 2026-04-23 22:27 | 32.61074 | 34.95338 | 1394 ft | 159 kts | 195° |
| 2026-04-23 22:27 | 32.60018 | 34.94953 | 1366 ft | 159 kts | 201° |
| 2026-04-23 22:27 | 32.58970 | 34.94511 | 1300 ft | 161 kts | 200° |
| 2026-04-23 22:28 | 32.57905 | 34.94082 | 1282 ft | 160 kts | 201° |
| 2026-04-23 22:28 | 32.56864 | 34.93629 | 1333 ft | 159 kts | 201° |
| 2026-04-23 22:28 | 32.55813 | 34.93242 | 1322 ft | 160 kts | 194° |
| 2026-04-23 22:28 | 32.54720 | 34.93013 | 1333 ft | 159 kts | 190° |
| 2026-04-23 22:29 | 32.53653 | 34.92836 | 1438 ft | 152 kts | 186° |
| 2026-04-23 22:29 | 32.52591 | 34.92848 | 1468 ft | 155 kts | 176° |
| 2026-04-23 22:29 | 32.51504 | 34.92906 | 1464 ft | 157 kts | 180° |
| 2026-04-23 22:29 | 32.50406 | 34.92856 | 1463 ft | 158 kts | 190° |
| 2026-04-23 22:30 | 32.49328 | 34.92564 | 1489 ft | 154 kts | 196° |
| 2026-04-23 22:30 | 32.48332 | 34.92224 | 1509 ft | 151 kts | 199° |
| 2026-04-23 22:30 | 32.47323 | 34.91804 | 1502 ft | 155 kts | 202° |
| 2026-04-23 22:30 | 32.46303 | 34.91413 | 1500 ft | 158 kts | 194° |
| 2026-04-23 22:31 | 32.45206 | 34.91177 | 1409 ft | 161 kts | 189° |
| 2026-04-23 22:31 | 32.44096 | 34.90992 | 1401 ft | 159 kts | 188° |
| 2026-04-23 22:31 | 32.43000 | 34.90816 | 1388 ft | 158 kts | 190° |
| 2026-04-23 22:31 | 32.41924 | 34.90594 | 1430 ft | 156 kts | 191° |
| 2026-04-23 22:32 | 32.40844 | 34.90443 | 1431 ft | 158 kts | 185° |
| 2026-04-23 22:32 | 32.39716 | 34.90415 | 1315 ft | 165 kts | 178° |
| 2026-04-23 22:32 | 32.38586 | 34.90609 | 1289 ft | 162 kts | 171° |
| 2026-04-23 22:32 | 32.37517 | 34.90791 | 1425 ft | 156 kts | 176° |
| 2026-04-23 22:33 | 32.36441 | 34.90825 | 1524 ft | 153 kts | 180° |
| 2026-04-23 22:33 | 32.35384 | 34.90802 | 1555 ft | 153 kts | 184° |
| 2026-04-23 22:33 | 32.34322 | 34.90695 | 1582 ft | 156 kts | 186° |
| 2026-04-23 22:33 | 32.33209 | 34.90546 | 1388 ft | 165 kts | 188° |
| 2026-04-23 22:34 | 32.32088 | 34.90321 | 1302 ft | 165 kts | 191° |
| 2026-04-23 22:34 | 32.30983 | 34.90130 | 1340 ft | 159 kts | 188° |
| 2026-04-23 22:34 | 32.29897 | 34.89977 | 1408 ft | 155 kts | 189° |
| 2026-04-23 22:34 | 32.28844 | 34.89794 | 1466 ft | 154 kts | 190° |
| 2026-04-23 22:35 | 32.27777 | 34.89592 | 1431 ft | 157 kts | 188° |
| 2026-04-23 22:35 | 32.26728 | 34.89382 | 1396 ft | 157 kts | 191° |
| 2026-04-23 22:35 | 32.25665 | 34.89164 | 1428 ft | 156 kts | 191° |
| 2026-04-23 22:35 | 32.24611 | 34.88861 | 1464 ft | 155 kts | 197° |
| 2026-04-23 22:36 | 32.23537 | 34.88532 | 1389 ft | 163 kts | 192° |
| 2026-04-23 22:36 | 32.22404 | 34.88365 | 1326 ft | 164 kts | 184° |
| 2026-04-23 22:36 | 32.21376 | 34.87926 | 1264 ft | 160 kts | 225° |
| 2026-04-23 22:36 | 32.20843 | 34.86860 | 1166 ft | 137 kts | 250° |
| 2026-04-23 22:37 | 32.20132 | 34.86088 | 1211 ft | 147 kts | 200° |
| 2026-04-23 22:37 | 32.19258 | 34.85734 | 997 ft | 128 kts | 199° |
| 2026-04-23 22:37 | 32.18463 | 34.85454 | 796 ft | 114 kts | 200° |
| 2026-04-23 22:37 | 32.17799 | 34.85096 | 655 ft | 100 kts | 231° |
| 2026-04-23 22:38 | 32.17748 | 34.84363 | 351 ft | 95 kts | 294° |
| 2026-04-23 22:38 | 32.17981 | 34.83622 | 116 ft | 92 kts | 289° |
| 2026-04-23 22:38 | 32.18178 | 34.82973 | 219 ft | 84 kts | 292° |
| 2026-04-23 22:38 | 32.18756 | 34.82834 | 311 ft | 109 kts | 17° |
| 2026-04-23 22:39 | 32.19296 | 34.83351 | 717 ft | 105 kts | 87° |
| 2026-04-23 22:39 | 32.19003 | 34.84264 | 676 ft | 137 kts | 111° |
| 2026-04-23 22:39 | 32.18562 | 34.85143 | 655 ft | 115 kts | 144° |
| 2026-04-23 22:39 | 32.17832 | 34.85192 | 501 ft | 107 kts | 212° |
| 2026-04-23 22:40 | 32.17684 | 34.84532 | 339 ft | 87 kts | 298° |
| 2026-04-23 22:40 | 32.17904 | 34.83880 | 154 ft | 84 kts | 290° |
| 2026-04-23 22:40 | 32.18509 | 34.82803 | 308 ft | 101 kts | 1° |
| 2026-04-23 22:41 | 32.19282 | 34.83020 | 428 ft | 120 kts | 11° |
| 2026-04-23 22:41 | 32.20122 | 34.83292 | 609 ft | 129 kts | 15° |
| 2026-04-23 22:41 | 32.21029 | 34.83504 | 726 ft | 137 kts | 357° |
| 2026-04-23 22:41 | 32.21826 | 34.82985 | 911 ft | 133 kts | 308° |
| 2026-04-23 22:42 | 32.22088 | 34.81930 | 933 ft | 144 kts | 261° |
| 2026-04-23 22:42 | 32.21385 | 34.81139 | 889 ft | 158 kts | 198° |
| 2026-04-23 22:42 | 32.20303 | 34.80826 | 846 ft | 159 kts | 197° |
| 2026-04-23 22:42 | 32.19228 | 34.80499 | 766 ft | 161 kts | 194° |
| 2026-04-23 22:43 | 32.18154 | 34.80178 | 784 ft | 157 kts | 196° |
| 2026-04-23 22:43 | 32.17092 | 34.79875 | 803 ft | 156 kts | 196° |
| 2026-04-23 22:43 | 32.16015 | 34.79591 | 820 ft | 161 kts | 195° |
| 2026-04-23 22:43 | 32.14939 | 34.79236 | 810 ft | 161 kts | 198° |
| 2026-04-23 22:44 | 32.14233 | 34.79021 | 870 ft | 155 kts | 195° |
| 2026-04-23 22:44 | 32.12878 | 34.78509 | 919 ft | 156 kts | 202° |
| 2026-04-23 22:44 | 32.11851 | 34.78104 | 1004 ft | 157 kts | 200° |
| 2026-04-23 22:44 | 32.10804 | 34.77700 | 972 ft | 161 kts | 199° |
| 2026-04-23 22:45 | 32.09745 | 34.77261 | 920 ft | 158 kts | 202° |
| 2026-04-23 22:45 | 32.08721 | 34.76825 | 1033 ft | 157 kts | 199° |
| 2026-04-23 22:45 | 32.07671 | 34.76411 | 970 ft | 162 kts | 201° |
| 2026-04-23 22:45 | 32.06618 | 34.75960 | 927 ft | 159 kts | 200° |
| 2026-04-23 22:46 | 32.05738 | 34.76496 | 1006 ft | 157 kts | 118° |
| 2026-04-23 22:46 | 32.05438 | 34.77277 | 1019 ft | 158 kts | 107° |
| 2026-04-23 22:46 | 32.05012 | 34.78869 | 1149 ft | 155 kts | 104° |
| 2026-04-23 22:46 | 32.04593 | 34.80079 | 1060 ft | 161 kts | 112° |
| 2026-04-23 22:47 | 32.04123 | 34.81288 | 940 ft | 162 kts | 112° |
| 2026-04-23 22:47 | 32.03623 | 34.82425 | 854 ft | 152 kts | 118° |
| 2026-04-23 22:47 | 32.03099 | 34.83487 | 769 ft | 151 kts | 120° |
| 2026-04-23 22:47 | 32.02533 | 34.84546 | 614 ft | 152 kts | 122° |
| 2026-04-23 22:48 | 32.02182 | 34.85215 | 499 ft | 138 kts | 120° |
| 2026-04-23 22:48 | 32.01694 | 34.86154 | 307 ft | 127 kts | 121° |
| 2026-04-23 22:48 | 32.01219 | 34.87065 | 112 ft | 77 kts | 120° |
| 2026-04-23 22:48 | 32.00944 | 34.87601 | 148 ft | 91 kts | 122° |
| 2026-04-23 22:49 | 32.00542 | 34.88290 | 338 ft | 107 kts | 133° |
| 2026-04-23 22:49 | 32.00312 | 34.88813 | 524 ft | 114 kts | 114° |
| 2026-04-23 22:49 | 31.99705 | 34.89956 | 746 ft | 129 kts | 124° |
| 2026-04-23 22:49 | 31.99111 | 34.90725 | 1108 ft | 126 kts | 148° |
| 2026-04-23 22:50 | 31.98545 | 34.90882 | 1269 ft | 133 kts | 185° |
| 2026-04-23 22:50 | 31.97709 | 34.90418 | 1384 ft | 136 kts | 237° |
| 2026-04-23 22:50 | 31.97348 | 34.89434 | 1658 ft | 129 kts | 266° |
| 2026-04-23 22:50 | 31.97661 | 34.88011 | 1790 ft | 141 kts | 291° |
| 2026-04-23 22:51 | 31.97908 | 34.87298 | 1970 ft | 138 kts | 295° |
| 2026-04-23 22:51 | 31.98560 | 34.85970 | 2044 ft | 147 kts | 305° |
| 2026-04-23 22:51 | 31.98949 | 34.85305 | 2024 ft | 138 kts | 307° |
| 2026-04-23 22:51 | 31.99437 | 34.84464 | 2005 ft | 118 kts | 306° |
| 2026-04-23 22:52 | 31.99892 | 34.83682 | 1690 ft | 100 kts | 305° |
| 2026-04-23 22:52 | 32.00328 | 34.83043 | 1533 ft | 108 kts | 321° |
| 2026-04-23 22:52 | 32.01037 | 34.82719 | 1503 ft | 106 kts | 352° |
| 2026-04-23 22:52 | 32.01694 | 34.82993 | 1293 ft | 114 kts | 36° |
| 2026-04-23 22:53 | 32.02120 | 34.83778 | 1008 ft | 106 kts | 68° |
| 2026-04-23 22:53 | 32.02190 | 34.84576 | 837 ft | 100 kts | 94° |
| 2026-04-23 22:53 | 32.01990 | 34.85355 | 674 ft | 94 kts | 110° |
| 2026-04-23 22:53 | 32.01700 | 34.86057 | 451 ft | 92 kts | 116° |
| 2026-04-23 22:54 | 32.01415 | 34.86677 | 200 ft | 84 kts | 118° |
| 2026-04-23 22:54 | 32.01128 | 34.87223 | 114 ft | 73 kts | 119° |
| 2026-04-23 22:54 | 32.00870 | 34.87724 | 198 ft | 84 kts | 117° |
| 2026-04-23 22:54 | 32.00515 | 34.88396 | 361 ft | 106 kts | 116° |
| 2026-04-23 22:55 | 32.00661 | 34.89148 | 604 ft | 107 kts | 29° |
| 2026-04-23 22:55 | 32.01469 | 34.89234 | 709 ft | 129 kts | 348° |
| 2026-04-23 22:55 | 32.02345 | 34.89048 | 911 ft | 128 kts | 349° |
| 2026-04-23 22:55 | 32.03205 | 34.88852 | 1146 ft | 120 kts | 333° |
| 2026-04-23 22:56 | 32.03915 | 34.88274 | 1244 ft | 127 kts | 324° |
| 2026-04-23 22:56 | 32.04674 | 34.87754 | 1340 ft | 130 kts | 339° |
| 2026-04-23 22:56 | 32.05554 | 34.87464 | 1461 ft | 130 kts | 348° |
| 2026-04-23 22:56 | 32.06477 | 34.87373 | 1532 ft | 138 kts | 354° |
| 2026-04-23 22:57 | 32.07448 | 34.87363 | 1566 ft | 139 kts | 0° |
| 2026-04-23 22:57 | 32.08396 | 34.87419 | 1750 ft | 136 kts | 1° |
| 2026-04-23 22:57 | 32.09352 | 34.87465 | 1842 ft | 140 kts | 0° |
| 2026-04-23 22:57 | 32.10332 | 34.87483 | 1950 ft | 142 kts | 0° |
| 2026-04-23 22:58 | 32.11344 | 34.87464 | 1911 ft | 150 kts | 357° |
| 2026-04-23 22:58 | 32.12386 | 34.87392 | 1989 ft | 149 kts | 355° |
| 2026-04-23 22:58 | 32.13402 | 34.87294 | 2119 ft | 145 kts | 352° |
| 2026-04-23 22:58 | 32.14394 | 34.87192 | 1995 ft | 142 kts | 351° |
| 2026-04-23 22:59 | 32.14999 | 34.86467 | 2119 ft | 134 kts | 285° |
| 2026-04-23 22:59 | 32.15044 | 34.85288 | 1712 ft | 156 kts | 254° |
| 2026-04-23 22:59 | 32.14708 | 34.84131 | 1647 ft | 146 kts | 271° |
| 2026-04-23 22:59 | 32.14994 | 34.82997 | 1532 ft | 145 kts | 294° |
| 2026-04-23 23:00 | 32.15593 | 34.82054 | 1290 ft | 147 kts | 324° |
| 2026-04-23 23:00 | 32.16602 | 34.82145 | 1021 ft | 152 kts | 18° |
| 2026-04-23 23:00 | 32.17567 | 34.82588 | 798 ft | 148 kts | 17° |
| 2026-04-23 23:00 | 32.18522 | 34.82945 | 760 ft | 137 kts | 15° |
| 2026-04-23 23:01 | 32.18973 | 34.83810 | 866 ft | 130 kts | 87° |
| 2026-04-23 23:01 | 32.18746 | 34.84655 | 765 ft | 106 kts | 124° |
| 2026-04-23 23:01 | 32.18243 | 34.85157 | 566 ft | 88 kts | 163° |
| 2026-04-23 23:01 | 32.17716 | 34.85078 | 440 ft | 73 kts | 232° |
| 2026-04-23 23:02 | 32.17701 | 34.84543 | 310 ft | 67 kts | 294° |
| 2026-04-23 23:02 | 32.17849 | 34.84048 | 187 ft | 62 kts | 294° |
| 2026-04-23 23:02 | 32.17985 | 34.83598 | 105 ft | 51 kts | 291° |
| 2026-04-23 23:02 | 32.18033 | 34.83439 | 99 ft | 0 kts | 292° |
| 2026-04-23 23:03 | 32.18046 | 34.83402 | 102 ft | 18 kts | 290° |
| 2026-04-23 23:03 | 32.18025 | 34.83361 | 103 ft | 15 kts | 108° |
| 2026-04-23 23:03 | 32.17971 | 34.83536 | 107 ft | 29 kts | 108° |
| 2026-04-23 23:04 | 32.17898 | 34.83675 | 114 ft | 14 kts | 155° |
| 2026-04-23 23:04 | 32.17883 | 34.83699 | 115 ft | 0 kts | 72° |
| 2026-04-23 23:04 | 32.17886 | 34.83704 | 115 ft | 0 kts | 19° |